sensor_id;sensor_type;location;lat;lon;timestamp;pressure;altitude;pressure_sealevel;temperature;humidity
17383;BME280;8809;51.892;8.384;2023-04-03T00:01:44;102016.09;;;4.00;100.00
17383;BME280;8809;51.892;8.384;2023-04-03T00:04:11;102012.63;;;4.00;100.00
17383;BME280;8809;51.892;8.384;2023-04-03T00:06:38;102016.72;;;3.98;100.00
17383;BME280;8809;51.892;8.384;2023-04-03T00:09:05;102016.59;;;3.96;100.00
17383;BME280;8809;51.892;8.384;2023-04-03T00:11:32;102015.41;;;3.93;100.00
17383;BME280;8809;51.892;8.384;2023-04-03T00:14:00;102016.03;;;3.90;100.00
17383;BME280;8809;51.892;8.384;2023-04-03T00:16:28;102020.78;;;3.86;100.00
17383;BME280;8809;51.892;8.384;2023-04-03T00:18:55;102014.44;;;3.82;100.00
17383;BME280;8809;51.892;8.384;2023-04-03T00:21:24;102014.91;;;3.78;100.00
17383;BME280;8809;51.892;8.384;2023-04-03T00:23:51;102011.44;;;3.78;100.00
17383;BME280;8809;51.892;8.384;2023-04-03T00:26:18;102018.78;;;3.73;100.00
17383;BME280;8809;51.892;8.384;2023-04-03T00:28:46;102027.28;;;3.72;100.00
17383;BME280;8809;51.892;8.384;2023-04-03T00:31:14;102024.56;;;3.70;100.00
17383;BME280;8809;51.892;8.384;2023-04-03T00:33:43;102020.00;;;3.68;100.00
17383;BME280;8809;51.892;8.384;2023-04-03T00:36:11;102034.19;;;3.63;100.00
17383;BME280;8809;51.892;8.384;2023-04-03T00:38:39;102029.50;;;3.59;100.00
17383;BME280;8809;51.892;8.384;2023-04-03T00:41:07;102034.50;;;3.57;100.00
17383;BME280;8809;51.892;8.384;2023-04-03T00:43:34;102034.09;;;3.53;100.00
17383;BME280;8809;51.892;8.384;2023-04-03T00:46:01;102036.53;;;3.51;100.00
17383;BME280;8809;51.892;8.384;2023-04-03T00:48:30;102038.06;;;3.49;100.00
17383;BME280;8809;51.892;8.384;2023-04-03T00:51:00;102042.16;;;3.47;100.00
17383;BME280;8809;51.892;8.384;2023-04-03T00:53:30;102047.22;;;3.46;100.00
17383;BME280;8809;51.892;8.384;2023-04-03T00:55:58;102049.50;;;3.43;100.00
17383;BME280;8809;51.892;8.384;2023-04-03T00:58:31;102048.72;;;3.44;100.00
17383;BME280;8809;51.892;8.384;2023-04-03T01:01:05;102052.69;;;3.40;100.00
17383;BME280;8809;51.892;8.384;2023-04-03T01:03:33;102039.38;;;3.35;100.00
17383;BME280;8809;51.892;8.384;2023-04-03T01:06:02;102046.69;;;3.31;100.00
17383;BME280;8809;51.892;8.384;2023-04-03T01:08:30;102038.78;;;3.29;100.00
17383;BME280;8809;51.892;8.384;2023-04-03T01:10:57;102029.88;;;3.26;100.00
17383;BME280;8809;51.892;8.384;2023-04-03T01:13:26;102029.44;;;3.21;100.00
17383;BME280;8809;51.892;8.384;2023-04-03T01:15:54;102036.41;;;3.22;100.00
17383;BME280;8809;51.892;8.384;2023-04-03T01:18:22;102031.72;;;3.18;100.00
17383;BME280;8809;51.892;8.384;2023-04-03T01:21:19;102034.03;;;3.15;100.00
17383;BME280;8809;51.892;8.384;2023-04-03T01:27:00;102041.03;;;3.08;100.00
17383;BME280;8809;51.892;8.384;2023-04-03T01:29:28;102044.25;;;3.05;100.00
17383;BME280;8809;51.892;8.384;2023-04-03T01:31:57;102047.72;;;3.06;100.00
17383;BME280;8809;51.892;8.384;2023-04-03T01:34:25;102050.91;;;3.03;100.00
17383;BME280;8809;51.892;8.384;2023-04-03T01:36:53;102051.38;;;2.99;100.00
17383;BME280;8809;51.892;8.384;2023-04-03T01:39:20;102042.75;;;2.98;100.00
17383;BME280;8809;51.892;8.384;2023-04-03T01:41:48;102049.28;;;2.95;100.00
17383;BME280;8809;51.892;8.384;2023-04-03T01:44:15;102052.63;;;2.94;100.00
17383;BME280;8809;51.892;8.384;2023-04-03T01:46:42;102059.16;;;2.90;100.00
17383;BME280;8809;51.892;8.384;2023-04-03T01:49:11;102055.50;;;2.88;100.00
17383;BME280;8809;51.892;8.384;2023-04-03T01:51:38;102057.97;;;2.87;100.00
17383;BME280;8809;51.892;8.384;2023-04-03T01:54:05;102056.00;;;2.84;100.00
17383;BME280;8809;51.892;8.384;2023-04-03T01:56:32;102055.84;;;2.83;100.00
17383;BME280;8809;51.892;8.384;2023-04-03T01:58:59;102064.34;;;2.82;100.00
17383;BME280;8809;51.892;8.384;2023-04-03T02:01:26;102055.44;;;2.78;100.00
17383;BME280;8809;51.892;8.384;2023-04-03T02:03:53;102058.78;;;2.77;100.00
17383;BME280;8809;51.892;8.384;2023-04-03T02:06:22;102057.72;;;2.75;100.00
17383;BME280;8809;51.892;8.384;2023-04-03T02:08:49;102053.91;;;2.72;100.00
17383;BME280;8809;51.892;8.384;2023-04-03T02:11:16;102050.91;;;2.67;100.00
17383;BME280;8809;51.892;8.384;2023-04-03T02:13:43;102055.91;;;2.66;100.00
17383;BME280;8809;51.892;8.384;2023-04-03T02:16:11;102060.91;;;2.64;100.00
17383;BME280;8809;51.892;8.384;2023-04-03T02:18:39;102058.94;;;2.61;100.00
17383;BME280;8809;51.892;8.384;2023-04-03T02:21:07;102049.28;;;2.59;100.00
17383;BME280;8809;51.892;8.384;2023-04-03T02:23:35;102061.25;;;2.58;100.00
17383;BME280;8809;51.892;8.384;2023-04-03T02:26:04;102062.75;;;2.56;100.00
17383;BME280;8809;51.892;8.384;2023-04-03T02:28:32;102060.50;;;2.51;100.00
17383;BME280;8809;51.892;8.384;2023-04-03T02:30:59;102060.38;;;2.49;100.00
17383;BME280;8809;51.892;8.384;2023-04-03T02:33:26;102060.97;;;2.47;100.00
17383;BME280;8809;51.892;8.384;2023-04-03T02:35:54;102058.25;;;2.45;100.00
17383;BME280;8809;51.892;8.384;2023-04-03T02:38:21;102064.00;;;2.43;100.00
17383;BME280;8809;51.892;8.384;2023-04-03T02:40:49;102062.19;;;2.42;100.00
17383;BME280;8809;51.892;8.384;2023-04-03T02:43:17;102060.09;;;2.38;100.00
17383;BME280;8809;51.892;8.384;2023-04-03T02:45:44;102058.25;;;2.37;100.00
17383;BME280;8809;51.892;8.384;2023-04-03T02:48:12;102069.31;;;2.36;100.00
17383;BME280;8809;51.892;8.384;2023-04-03T02:50:40;102059.34;;;2.30;100.00
17383;BME280;8809;51.892;8.384;2023-04-03T02:53:08;102062.84;;;2.31;100.00
17383;BME280;8809;51.892;8.384;2023-04-03T02:55:35;102059.78;;;2.26;100.00
17383;BME280;8809;51.892;8.384;2023-04-03T02:58:04;102052.81;;;2.25;100.00
17383;BME280;8809;51.892;8.384;2023-04-03T03:00:31;102061.16;;;2.22;100.00
17383;BME280;8809;51.892;8.384;2023-04-03T03:02:58;102059.31;;;2.21;100.00
17383;BME280;8809;51.892;8.384;2023-04-03T03:05:26;102055.56;;;2.18;100.00
17383;BME280;8809;51.892;8.384;2023-04-03T03:07:53;102063.72;;;2.14;100.00
17383;BME280;8809;51.892;8.384;2023-04-03T03:10:21;102062.06;;;2.14;100.00
17383;BME280;8809;51.892;8.384;2023-04-03T03:12:49;102055.84;;;2.12;100.00
17383;BME280;8809;51.892;8.384;2023-04-03T03:15:17;102059.81;;;2.09;100.00
17383;BME280;8809;51.892;8.384;2023-04-03T03:17:45;102059.50;;;2.06;100.00
17383;BME280;8809;51.892;8.384;2023-04-03T03:20:12;102065.41;;;2.05;100.00
17383;BME280;8809;51.892;8.384;2023-04-03T03:22:42;102064.06;;;2.00;100.00
17383;BME280;8809;51.892;8.384;2023-04-03T03:25:10;102065.25;;;1.95;100.00
17383;BME280;8809;51.892;8.384;2023-04-03T03:27:37;102060.09;;;1.95;100.00
17383;BME280;8809;51.892;8.384;2023-04-03T03:30:06;102059.81;;;1.92;100.00
17383;BME280;8809;51.892;8.384;2023-04-03T03:32:35;102072.53;;;1.90;100.00
17383;BME280;8809;51.892;8.384;2023-04-03T03:35:02;102071.31;;;1.86;100.00
17383;BME280;8809;51.892;8.384;2023-04-03T03:37:29;102064.94;;;1.83;100.00
17383;BME280;8809;51.892;8.384;2023-04-03T03:39:56;102074.03;;;1.79;100.00
17383;BME280;8809;51.892;8.384;2023-04-03T03:42:23;102079.94;;;1.78;100.00
17383;BME280;8809;51.892;8.384;2023-04-03T03:44:50;102077.06;;;1.75;100.00
17383;BME280;8809;51.892;8.384;2023-04-03T03:47:17;102078.88;;;1.76;100.00
17383;BME280;8809;51.892;8.384;2023-04-03T03:49:46;102077.53;;;1.71;100.00
17383;BME280;8809;51.892;8.384;2023-04-03T03:52:13;102078.28;;;1.70;100.00
17383;BME280;8809;51.892;8.384;2023-04-03T03:54:40;102072.97;;;1.69;100.00
17383;BME280;8809;51.892;8.384;2023-04-03T03:57:07;102078.69;;;1.66;100.00
17383;BME280;8809;51.892;8.384;2023-04-03T03:59:34;102080.09;;;1.63;100.00
17383;BME280;8809;51.892;8.384;2023-04-03T04:02:01;102081.59;;;1.61;100.00
17383;BME280;8809;51.892;8.384;2023-04-03T04:04:28;102079.59;;;1.58;100.00
17383;BME280;8809;51.892;8.384;2023-04-03T04:06:57;102088.06;;;1.57;100.00
17383;BME280;8809;51.892;8.384;2023-04-03T04:09:26;102085.19;;;1.54;100.00
17383;BME280;8809;51.892;8.384;2023-04-03T04:11:53;102089.44;;;1.54;100.00
17383;BME280;8809;51.892;8.384;2023-04-03T04:14:20;102084.72;;;1.49;100.00
17383;BME280;8809;51.892;8.384;2023-04-03T04:16:48;102087.16;;;1.48;100.00
17383;BME280;8809;51.892;8.384;2023-04-03T04:19:15;102087.72;;;1.45;100.00
17383;BME280;8809;51.892;8.384;2023-04-03T04:21:42;102093.63;;;1.44;100.00
17383;BME280;8809;51.892;8.384;2023-04-03T04:24:10;102096.19;;;1.44;100.00
17383;BME280;8809;51.892;8.384;2023-04-03T04:26:37;102087.59;;;1.44;100.00
17383;BME280;8809;51.892;8.384;2023-04-03T04:29:05;102094.25;;;1.42;100.00
17383;BME280;8809;51.892;8.384;2023-04-03T04:31:32;102091.34;;;1.39;100.00
17383;BME280;8809;51.892;8.384;2023-04-03T04:33:59;102089.38;;;1.36;100.00
17383;BME280;8809;51.892;8.384;2023-04-03T04:36:26;102096.06;;;1.34;100.00
17383;BME280;8809;51.892;8.384;2023-04-03T04:38:53;102088.19;;;1.33;100.00
17383;BME280;8809;51.892;8.384;2023-04-03T04:41:21;102093.00;;;1.30;100.00
17383;BME280;8809;51.892;8.384;2023-04-03T04:43:48;102099.63;;;1.28;100.00
17383;BME280;8809;51.892;8.384;2023-04-03T04:46:16;102102.38;;;1.29;100.00
17383;BME280;8809;51.892;8.384;2023-04-03T04:48:43;102104.03;;;1.29;100.00
17383;BME280;8809;51.892;8.384;2023-04-03T04:51:11;102105.53;;;1.27;100.00
17383;BME280;8809;51.892;8.384;2023-04-03T04:53:38;102107.94;;;1.25;100.00
17383;BME280;8809;51.892;8.384;2023-04-03T04:56:05;102105.06;;;1.22;100.00
17383;BME280;8809;51.892;8.384;2023-04-03T04:58:34;102104.16;;;1.22;100.00
17383;BME280;8809;51.892;8.384;2023-04-03T05:01:02;102114.28;;;1.20;100.00
17383;BME280;8809;51.892;8.384;2023-04-03T05:03:29;102113.22;;;1.18;100.00
17383;BME280;8809;51.892;8.384;2023-04-03T05:05:56;102113.22;;;1.18;100.00
17383;BME280;8809;51.892;8.384;2023-04-03T05:08:23;102120.75;;;1.17;100.00
17383;BME280;8809;51.892;8.384;2023-04-03T05:10:51;102118.34;;;1.18;100.00
17383;BME280;8809;51.892;8.384;2023-04-03T05:13:19;102121.84;;;1.19;100.00
17383;BME280;8809;51.892;8.384;2023-04-03T05:15:47;102124.06;;;1.16;100.00
17383;BME280;8809;51.892;8.384;2023-04-03T05:18:15;102124.84;;;1.15;100.00
17383;BME280;8809;51.892;8.384;2023-04-03T05:20:42;102129.84;;;1.13;100.00
17383;BME280;8809;51.892;8.384;2023-04-03T05:23:09;102130.75;;;1.14;100.00
17383;BME280;8809;51.892;8.384;2023-04-03T05:25:37;102128.00;;;1.12;100.00
17383;BME280;8809;51.892;8.384;2023-04-03T05:28:05;102125.28;;;1.10;100.00
17383;BME280;8809;51.892;8.384;2023-04-03T05:30:32;102132.81;;;1.09;100.00
17383;BME280;8809;51.892;8.384;2023-04-03T05:33:01;102139.34;;;1.05;100.00
17383;BME280;8809;51.892;8.384;2023-04-03T05:35:28;102142.78;;;1.06;100.00
17383;BME280;8809;51.892;8.384;2023-04-03T05:37:56;102148.09;;;1.07;100.00
17383;BME280;8809;51.892;8.384;2023-04-03T05:40:23;102152.19;;;1.05;100.00
17383;BME280;8809;51.892;8.384;2023-04-03T05:42:51;102152.00;;;1.04;100.00
17383;BME280;8809;51.892;8.384;2023-04-03T05:45:19;102156.41;;;1.05;100.00
17383;BME280;8809;51.892;8.384;2023-04-03T05:47:46;102153.84;;;1.05;100.00
17383;BME280;8809;51.892;8.384;2023-04-03T05:50:15;102155.16;;;1.01;100.00
17383;BME280;8809;51.892;8.384;2023-04-03T05:52:44;102156.06;;;1.02;100.00
17383;BME280;8809;51.892;8.384;2023-04-03T05:55:13;102164.53;;;1.01;100.00
17383;BME280;8809;51.892;8.384;2023-04-03T05:57:40;102161.38;;;1.03;100.00
17383;BME280;8809;51.892;8.384;2023-04-03T06:00:10;102159.72;;;1.04;100.00
17383;BME280;8809;51.892;8.384;2023-04-03T06:02:42;102164.69;;;1.02;100.00
17383;BME280;8809;51.892;8.384;2023-04-03T06:05:09;102165.78;;;1.04;100.00
17383;BME280;8809;51.892;8.384;2023-04-03T06:07:38;102174.41;;;1.05;100.00
17383;BME280;8809;51.892;8.384;2023-04-03T06:10:07;102178.75;;;1.06;100.00
17383;BME280;8809;51.892;8.384;2023-04-03T06:12:34;102174.53;;;1.06;100.00
17383;BME280;8809;51.892;8.384;2023-04-03T06:15:02;102186.47;;;1.06;100.00
17383;BME280;8809;51.892;8.384;2023-04-03T06:17:29;102186.63;;;1.07;100.00
17383;BME280;8809;51.892;8.384;2023-04-03T06:19:56;102191.03;;;1.08;100.00
17383;BME280;8809;51.892;8.384;2023-04-03T06:22:24;102188.63;;;1.10;100.00
17383;BME280;8809;51.892;8.384;2023-04-03T06:24:54;102191.34;;;1.11;100.00
17383;BME280;8809;51.892;8.384;2023-04-03T06:27:21;102197.56;;;1.14;100.00
17383;BME280;8809;51.892;8.384;2023-04-03T06:29:48;102195.91;;;1.14;100.00
17383;BME280;8809;51.892;8.384;2023-04-03T06:32:16;102186.66;;;1.16;100.00
17383;BME280;8809;51.892;8.384;2023-04-03T06:34:43;102193.63;;;1.17;100.00
17383;BME280;8809;51.892;8.384;2023-04-03T06:37:14;102192.13;;;1.19;100.00
17383;BME280;8809;51.892;8.384;2023-04-03T06:39:42;102192.31;;;1.21;100.00
17383;BME280;8809;51.892;8.384;2023-04-03T06:42:10;102189.72;;;1.21;100.00
17383;BME280;8809;51.892;8.384;2023-04-03T06:44:37;102193.53;;;1.24;100.00
17383;BME280;8809;51.892;8.384;2023-04-03T06:47:05;102198.06;;;1.27;100.00
17383;BME280;8809;51.892;8.384;2023-04-03T06:49:32;102190.53;;;1.28;100.00
17383;BME280;8809;51.892;8.384;2023-04-03T06:51:59;102194.16;;;1.30;100.00
17383;BME280;8809;51.892;8.384;2023-04-03T06:54:26;102199.63;;;1.33;100.00
17383;BME280;8809;51.892;8.384;2023-04-03T06:56:53;102199.03;;;1.36;100.00
17383;BME280;8809;51.892;8.384;2023-04-03T06:59:21;102205.22;;;1.38;100.00
17383;BME280;8809;51.892;8.384;2023-04-03T07:01:49;102206.31;;;1.40;100.00
17383;BME280;8809;51.892;8.384;2023-04-03T07:04:17;102218.59;;;1.42;100.00
17383;BME280;8809;51.892;8.384;2023-04-03T07:06:45;102222.34;;;1.46;100.00
17383;BME280;8809;51.892;8.384;2023-04-03T07:09:13;102228.75;;;1.49;100.00
17383;BME280;8809;51.892;8.384;2023-04-03T07:11:41;102227.25;;;1.52;100.00
17383;BME280;8809;51.892;8.384;2023-04-03T07:14:08;102231.63;;;1.53;100.00
17383;BME280;8809;51.892;8.384;2023-04-03T07:16:37;102232.84;;;1.56;100.00
17383;BME280;8809;51.892;8.384;2023-04-03T07:19:04;102236.66;;;1.60;100.00
17383;BME280;8809;51.892;8.384;2023-04-03T07:21:32;102252.53;;;1.64;100.00
17383;BME280;8809;51.892;8.384;2023-04-03T07:24:00;102245.31;;;1.69;100.00
17383;BME280;8809;51.892;8.384;2023-04-03T07:26:27;102250.03;;;1.73;100.00
17383;BME280;8809;51.892;8.384;2023-04-03T07:28:56;102253.81;;;1.76;100.00
17383;BME280;8809;51.892;8.384;2023-04-03T07:31:23;102251.09;;;1.83;100.00
17383;BME280;8809;51.892;8.384;2023-04-03T07:33:52;102255.06;;;1.89;100.00
17383;BME280;8809;51.892;8.384;2023-04-03T07:36:21;102264.16;;;1.94;100.00
17383;BME280;8809;51.892;8.384;2023-04-03T07:38:49;102265.72;;;2.00;100.00
17383;BME280;8809;51.892;8.384;2023-04-03T07:41:18;102268.47;;;2.10;100.00
17383;BME280;8809;51.892;8.384;2023-04-03T07:43:47;102262.69;;;2.13;100.00
17383;BME280;8809;51.892;8.384;2023-04-03T07:46:16;102273.16;;;2.23;100.00
17383;BME280;8809;51.892;8.384;2023-04-03T07:48:44;102264.84;;;2.26;100.00
17383;BME280;8809;51.892;8.384;2023-04-03T07:51:13;102263.50;;;2.29;100.00
17383;BME280;8809;51.892;8.384;2023-04-03T07:53:40;102267.28;;;2.33;100.00
17383;BME280;8809;51.892;8.384;2023-04-03T07:56:08;102265.78;;;2.35;100.00
17383;BME280;8809;51.892;8.384;2023-04-03T07:58:35;102269.44;;;2.37;100.00
17383;BME280;8809;51.892;8.384;2023-04-03T08:01:04;102268.09;;;2.40;100.00
17383;BME280;8809;51.892;8.384;2023-04-03T08:03:32;102267.44;;;2.43;100.00
17383;BME280;8809;51.892;8.384;2023-04-03T08:06:03;102273.38;;;2.50;100.00
17383;BME280;8809;51.892;8.384;2023-04-03T08:08:32;102279.91;;;2.55;100.00
17383;BME280;8809;51.892;8.384;2023-04-03T08:11:00;102276.09;;;2.60;100.00
17383;BME280;8809;51.892;8.384;2023-04-03T08:13:28;102270.81;;;2.68;100.00
17383;BME280;8809;51.892;8.384;2023-04-03T08:15:56;102282.03;;;2.77;100.00
17383;BME280;8809;51.892;8.384;2023-04-03T08:18:24;102277.47;;;2.83;100.00
17383;BME280;8809;51.892;8.384;2023-04-03T08:20:52;102271.25;;;2.89;100.00
17383;BME280;8809;51.892;8.384;2023-04-03T08:23:19;102274.47;;;2.95;100.00
17383;BME280;8809;51.892;8.384;2023-04-03T08:25:48;102270.03;;;3.03;100.00
17383;BME280;8809;51.892;8.384;2023-04-03T08:28:16;102273.84;;;3.07;100.00
17383;BME280;8809;51.892;8.384;2023-04-03T08:30:43;102279.44;;;3.11;100.00
17383;BME280;8809;51.892;8.384;2023-04-03T08:33:11;102276.69;;;3.18;100.00
17383;BME280;8809;51.892;8.384;2023-04-03T08:35:39;102275.47;;;3.23;100.00
17383;BME280;8809;51.892;8.384;2023-04-03T08:38:07;102279.72;;;3.31;100.00
17383;BME280;8809;51.892;8.384;2023-04-03T08:40:34;102280.91;;;3.44;100.00
17383;BME280;8809;51.892;8.384;2023-04-03T08:43:18;102275.72;;;3.52;100.00
17383;BME280;8809;51.892;8.384;2023-04-03T08:45:55;102274.16;;;3.63;100.00
17383;BME280;8809;51.892;8.384;2023-04-03T08:48:27;102274.44;;;3.75;100.00
17383;BME280;8809;51.892;8.384;2023-04-03T08:50:58;102278.31;;;3.88;100.00
17383;BME280;8809;51.892;8.384;2023-04-03T08:53:29;102278.56;;;4.00;100.00
17383;BME280;8809;51.892;8.384;2023-04-03T08:56:03;102280.63;;;4.13;100.00
17383;BME280;8809;51.892;8.384;2023-04-03T08:58:47;102278.91;;;4.22;100.00
17383;BME280;8809;51.892;8.384;2023-04-03T09:01:19;102279.31;;;4.26;100.00
17383;BME280;8809;51.892;8.384;2023-04-03T09:03:47;102278.19;;;4.33;100.00
17383;BME280;8809;51.892;8.384;2023-04-03T09:06:18;102281.03;;;4.44;100.00
17383;BME280;8809;51.892;8.384;2023-04-03T09:08:51;102282.16;;;4.57;100.00
17383;BME280;8809;51.892;8.384;2023-04-03T09:11:24;102274.13;;;4.72;100.00
17383;BME280;8809;51.892;8.384;2023-04-03T09:13:58;102284.41;;;4.81;100.00
17383;BME280;8809;51.892;8.384;2023-04-03T09:16:53;102276.22;;;4.95;100.00
17383;BME280;8809;51.892;8.384;2023-04-03T09:19:28;102279.16;;;5.08;100.00
17383;BME280;8809;51.892;8.384;2023-04-03T09:22:02;102283.25;;;5.25;100.00
17383;BME280;8809;51.892;8.384;2023-04-03T09:24:31;102286.41;;;5.41;100.00
17383;BME280;8809;51.892;8.384;2023-04-03T09:27:03;102287.28;;;5.60;100.00
17383;BME280;8809;51.892;8.384;2023-04-03T09:29:35;102286.06;;;5.76;100.00
17383;BME280;8809;51.892;8.384;2023-04-03T09:32:18;102287.13;;;5.88;96.78
17383;BME280;8809;51.892;8.384;2023-04-03T09:34:47;102288.47;;;6.03;100.00
17383;BME280;8809;51.892;8.384;2023-04-03T09:37:36;102286.81;;;6.14;100.00
17383;BME280;8809;51.892;8.384;2023-04-03T09:40:05;102290.81;;;6.20;97.81
17383;BME280;8809;51.892;8.384;2023-04-03T09:42:40;102277.59;;;6.27;98.27
17383;BME280;8809;51.892;8.384;2023-04-03T09:45:24;102290.44;;;6.36;84.65
17383;BME280;8809;51.892;8.384;2023-04-03T09:48:07;102281.38;;;6.51;90.02
17383;BME280;8809;51.892;8.384;2023-04-03T09:50:36;102273.75;;;6.63;92.58
17383;BME280;8809;51.892;8.384;2023-04-03T09:53:07;102282.53;;;6.75;95.96
17383;BME280;8809;51.892;8.384;2023-04-03T09:55:48;102272.78;;;6.83;100.00
17383;BME280;8809;51.892;8.384;2023-04-03T09:58:27;102266.44;;;6.89;100.00
17383;BME280;8809;51.892;8.384;2023-04-03T10:00:59;102267.97;;;6.97;100.00
17383;BME280;8809;51.892;8.384;2023-04-03T10:03:29;102275.25;;;7.01;89.98
17383;BME280;8809;51.892;8.384;2023-04-03T10:05:58;102269.13;;;7.11;99.11
17383;BME280;8809;51.892;8.384;2023-04-03T10:08:28;102262.16;;;7.22;97.33
17383;BME280;8809;51.892;8.384;2023-04-03T10:11:10;102270.69;;;7.31;100.00
17383;BME280;8809;51.892;8.384;2023-04-03T10:13:52;102267.97;;;7.39;96.83
17383;BME280;8809;51.892;8.384;2023-04-03T10:16:26;102266.22;;;7.50;94.28
17383;BME280;8809;51.892;8.384;2023-04-03T10:19:12;102270.09;;;7.55;84.05
17383;BME280;8809;51.892;8.384;2023-04-03T10:21:48;102265.34;;;7.71;91.31
17383;BME280;8809;51.892;8.384;2023-04-03T10:24:22;102257.13;;;7.77;99.60
17383;BME280;8809;51.892;8.384;2023-04-03T10:26:56;102260.56;;;7.66;89.23
17383;BME280;8809;51.892;8.384;2023-04-03T10:29:43;102250.91;;;7.75;95.04
17383;BME280;8809;51.892;8.384;2023-04-03T10:32:30;102255.78;;;7.82;95.68
17383;BME280;8809;51.892;8.384;2023-04-03T10:35:07;102243.28;;;7.88;94.50
17383;BME280;8809;51.892;8.384;2023-04-03T10:37:49;102247.22;;;8.05;97.50
17383;BME280;8809;51.892;8.384;2023-04-03T10:40:24;102239.22;;;8.13;98.36
17383;BME280;8809;51.892;8.384;2023-04-03T10:43:04;102250.78;;;8.29;95.70
17383;BME280;8809;51.892;8.384;2023-04-03T10:45:55;102234.59;;;8.43;98.85
17383;BME280;8809;51.892;8.384;2023-04-03T10:48:44;102248.88;;;8.60;93.35
17383;BME280;8809;51.892;8.384;2023-04-03T10:51:23;102247.53;;;8.65;87.55
17383;BME280;8809;51.892;8.384;2023-04-03T10:53:57;102249.69;;;8.70;90.06
17383;BME280;8809;51.892;8.384;2023-04-03T10:56:33;102240.19;;;8.71;93.58
17383;BME280;8809;51.892;8.384;2023-04-03T10:59:14;102239.94;;;8.68;96.24
17383;BME280;8809;51.892;8.384;2023-04-03T11:01:46;102240.28;;;8.61;94.98
17383;BME280;8809;51.892;8.384;2023-04-03T11:04:17;102240.81;;;8.56;97.52
17383;BME280;8809;51.892;8.384;2023-04-03T11:06:50;102232.91;;;8.67;92.90
17383;BME280;8809;51.892;8.384;2023-04-03T11:09:25;102225.78;;;8.76;90.08
17383;BME280;8809;51.892;8.384;2023-04-03T11:11:56;102229.31;;;8.88;87.90
17383;BME280;8809;51.892;8.384;2023-04-03T11:14:29;102233.28;;;9.06;86.20
17383;BME280;8809;51.892;8.384;2023-04-03T11:17:11;102232.81;;;9.23;86.08
17383;BME280;8809;51.892;8.384;2023-04-03T11:19:47;102228.97;;;9.42;89.71
17383;BME280;8809;51.892;8.384;2023-04-03T11:22:22;102221.44;;;9.58;86.38
17383;BME280;8809;51.892;8.384;2023-04-03T11:24:57;102224.19;;;9.73;84.94
17383;BME280;8809;51.892;8.384;2023-04-03T11:27:27;102225.56;;;9.79;85.94
17383;BME280;8809;51.892;8.384;2023-04-03T11:29:59;102232.78;;;9.83;95.94
17383;BME280;8809;51.892;8.384;2023-04-03T11:32:58;102222.31;;;9.95;94.87
17383;BME280;8809;51.892;8.384;2023-04-03T11:35:30;102223.94;;;9.81;95.15
17383;BME280;8809;51.892;8.384;2023-04-03T11:38:00;102203.59;;;9.76;94.23
17383;BME280;8809;51.892;8.384;2023-04-03T11:40:32;102215.16;;;9.67;91.75
17383;BME280;8809;51.892;8.384;2023-04-03T11:43:07;102202.69;;;9.75;91.79
17383;BME280;8809;51.892;8.384;2023-04-03T11:45:37;102206.72;;;9.83;92.12
17383;BME280;8809;51.892;8.384;2023-04-03T11:48:05;102219.19;;;9.87;79.11
17383;BME280;8809;51.892;8.384;2023-04-03T11:50:43;102209.91;;;10.04;85.94
17383;BME280;8809;51.892;8.384;2023-04-03T11:53:33;102207.69;;;10.22;91.43
17383;BME280;8809;51.892;8.384;2023-04-03T11:56:29;102208.25;;;10.43;92.83
17383;BME280;8809;51.892;8.384;2023-04-03T11:59:23;102200.94;;;10.50;87.03
17383;BME280;8809;51.892;8.384;2023-04-03T12:01:52;102212.78;;;10.58;81.25
17383;BME280;8809;51.892;8.384;2023-04-03T12:04:21;102190.66;;;10.65;88.76
17383;BME280;8809;51.892;8.384;2023-04-03T12:07:12;102192.75;;;10.70;79.45
17383;BME280;8809;51.892;8.384;2023-04-03T12:10:17;102180.31;;;10.66;88.29
17383;BME280;8809;51.892;8.384;2023-04-03T12:12:59;102180.50;;;10.69;90.53
17383;BME280;8809;51.892;8.384;2023-04-03T12:15:48;102184.81;;;10.69;81.38
17383;BME280;8809;51.892;8.384;2023-04-03T12:19:00;102189.13;;;10.68;87.11
17383;BME280;8809;51.892;8.384;2023-04-03T12:24:35;102169.72;;;10.38;90.56
17383;BME280;8809;51.892;8.384;2023-04-03T12:27:21;102163.88;;;10.29;91.75
17383;BME280;8809;51.892;8.384;2023-04-03T12:29:58;102158.47;;;10.39;92.35
17383;BME280;8809;51.892;8.384;2023-04-03T12:32:41;102150.97;;;10.57;91.93
17383;BME280;8809;51.892;8.384;2023-04-03T12:35:19;102145.16;;;10.61;94.85
17383;BME280;8809;51.892;8.384;2023-04-03T12:38:21;102165.22;;;10.49;88.50
17383;BME280;8809;51.892;8.384;2023-04-03T12:41:07;102144.53;;;10.39;95.54
17383;BME280;8809;51.892;8.384;2023-04-03T12:43:55;102145.53;;;10.28;96.74
17383;BME280;8809;51.892;8.384;2023-04-03T12:46:28;102142.75;;;10.13;90.69
17383;BME280;8809;51.892;8.384;2023-04-03T12:49:00;102143.44;;;10.11;87.30
17383;BME280;8809;51.892;8.384;2023-04-03T12:51:36;102144.31;;;10.23;84.21
17383;BME280;8809;51.892;8.384;2023-04-03T12:54:13;102145.75;;;10.44;90.67
17383;BME280;8809;51.892;8.384;2023-04-03T12:56:42;102138.50;;;10.40;96.30
17383;BME280;8809;51.892;8.384;2023-04-03T12:59:16;102145.91;;;10.21;87.12
17383;BME280;8809;51.892;8.384;2023-04-03T13:01:44;102152.88;;;10.09;86.48
17383;BME280;8809;51.892;8.384;2023-04-03T13:04:20;102143.84;;;10.03;96.52
17383;BME280;8809;51.892;8.384;2023-04-03T13:06:48;102141.84;;;9.99;91.71
17383;BME280;8809;51.892;8.384;2023-04-03T13:09:19;102136.97;;;9.92;96.76
17383;BME280;8809;51.892;8.384;2023-04-03T13:11:53;102134.75;;;9.85;98.12
17383;BME280;8809;51.892;8.384;2023-04-03T13:14:24;102130.16;;;9.94;92.32
17383;BME280;8809;51.892;8.384;2023-04-03T13:16:54;102134.41;;;10.05;94.15
17383;BME280;8809;51.892;8.384;2023-04-03T13:19:23;102129.28;;;10.19;91.42
17383;BME280;8809;51.892;8.384;2023-04-03T13:21:57;102136.38;;;10.21;82.89
17383;BME280;8809;51.892;8.384;2023-04-03T13:24:25;102138.00;;;10.32;83.33
17383;BME280;8809;51.892;8.384;2023-04-03T13:26:54;102123.88;;;10.55;90.65
17383;BME280;8809;51.892;8.384;2023-04-03T13:29:25;102126.69;;;10.58;93.96